Time;durP1;ratioP1;P1;durP2;ratioP2;P2;SDS_P1;SDS_P2;PMS_P1;PMS_P2;Temp;Humidity;BMP_temperature;BMP_pressure;BME280_temperature;BME280_humidity;BME280_pressure;Samples;Min_cycle;Max_cycle;Signal;HPM_P1;HPM_P2
2020/12/06 00:01:39;;;;;;;35.85;18.70;;;;;;;-1.72;100.00;100030.19;4984287;28;20089;-66
2020/12/06 00:04:08;;;;;;;41.63;18.77;;;;;;;-1.75;100.00;100022.53;4968580;28;20462;-66
2020/12/06 00:06:33;;;;;;;39.13;19.80;;;;;;;-1.73;100.00;100025.88;4971697;28;20043;-65
2020/12/06 00:09:00;;;;;;;40.97;20.23;;;;;;;-1.72;100.00;100023.13;4972308;28;20046;-66
2020/12/06 00:11:25;;;;;;;38.38;18.95;;;;;;;-1.69;100.00;100024.72;4987612;28;20035;-66
2020/12/06 00:13:51;;;;;;;42.97;21.08;;;;;;;-1.71;100.00;100018.72;4971984;28;20045;-66
2020/12/06 00:16:19;;;;;;;32.58;17.33;;;;;;;-1.77;100.00;100014.72;4971600;28;20058;-66
2020/12/06 00:18:47;;;;;;;42.55;19.75;;;;;;;-1.80;100.00;100019.38;4972361;28;20062;-66
2020/12/06 00:21:21;;;;;;;34.15;18.95;;;;;;;-1.77;100.00;100016.53;4972640;28;20035;-66
2020/12/06 00:23:48;;;;;;;38.15;18.63;;;;;;;-1.79;100.00;100015.81;4972285;28;20035;-66
2020/12/06 00:26:19;;;;;;;35.35;19.08;;;;;;;-1.84;100.00;100011.69;4972321;28;20027;-66
2020/12/06 00:28:45;;;;;;;36.85;18.92;;;;;;;-1.84;100.00;100014.34;4972566;28;20035;-65
2020/12/06 00:31:11;;;;;;;42.53;21.35;;;;;;;-1.87;100.00;100016.31;4971803;28;20039;-66
2020/12/06 00:33:37;;;;;;;47.58;22.40;;;;;;;-1.89;100.00;100020.88;4972083;28;20559;-66
2020/12/06 00:36:02;;;;;;;39.65;20.02;;;;;;;-1.93;100.00;100012.34;4972100;28;20110;-66
2020/12/06 00:38:28;;;;;;;38.03;19.45;;;;;;;-1.92;100.00;100015.81;4971662;28;20043;-66
2020/12/06 00:40:54;;;;;;;41.72;19.15;;;;;;;-2.00;100.00;100010.25;4971551;28;20041;-66
2020/12/06 00:43:19;;;;;;;46.63;21.75;;;;;;;-2.07;100.00;100017.72;4972741;28;20058;-65
2020/12/06 00:45:45;;;;;;;35.88;19.33;;;;;;;-2.12;100.00;100014.56;4971746;28;20038;-65
2020/12/06 00:48:11;;;;;;;40.35;21.42;;;;;;;-2.18;100.00;100009.72;4971926;28;20035;-65
2020/12/06 00:50:36;;;;;;;37.13;19.45;;;;;;;-2.22;100.00;100005.63;4971525;28;20567;-66
2020/12/06 00:53:02;;;;;;;33.97;17.92;;;;;;;-2.25;100.00;100005.84;4972135;28;20081;-66
2020/12/06 00:55:28;;;;;;;42.58;20.42;;;;;;;-2.32;100.00;100000.16;4971675;28;20035;-66
2020/12/06 00:57:53;;;;;;;40.60;21.10;;;;;;;-2.36;100.00;100003.94;4971892;28;20038;-66
2020/12/06 01:00:19;;;;;;;37.47;19.00;;;;;;;-2.43;100.00;100003.53;4970883;28;20073;-66
2020/12/06 01:02:44;;;;;;;37.30;18.77;;;;;;;-2.49;100.00;99996.06;4971623;28;20038;-66
2020/12/06 01:05:10;;;;;;;38.72;18.08;;;;;;;-2.61;100.00;99997.75;4971303;28;20121;-66
2020/12/06 01:07:38;;;;;;;44.25;21.52;;;;;;;-2.65;100.00;99993.63;4971567;28;20023;-66
2020/12/06 01:10:06;;;;;;;42.33;20.55;;;;;;;-2.61;100.00;99999.53;4971255;28;20062;-66
2020/12/06 01:12:32;;;;;;;47.10;22.45;;;;;;;-2.57;100.00;100000.16;4971734;28;20035;-65
2020/12/06 01:14:58;;;;;;;49.45;23.17;;;;;;;-2.56;100.00;99996.56;4970241;28;20372;-65
2020/12/06 01:17:24;;;;;;;46.47;24.45;;;;;;;-2.53;100.00;100015.59;4970851;28;20041;-65
2020/12/06 01:19:49;;;;;;;47.22;23.63;;;;;;;-2.47;100.00;100023.06;4971168;28;20565;-65
2020/12/06 01:22:15;;;;;;;49.42;23.52;;;;;;;-2.41;100.00;100017.41;4971603;28;20458;-67
2020/12/06 01:24:40;;;;;;;46.13;24.17;;;;;;;-2.37;100.00;100020.66;4971415;28;20035;-66
2020/12/06 01:27:06;;;;;;;44.28;22.23;;;;;;;-2.40;100.00;100018.25;4970877;28;20118;-66
2020/12/06 01:29:32;;;;;;;48.00;23.38;;;;;;;-2.42;100.00;100020.13;4970836;28;20038;-67
2020/12/06 01:31:57;;;;;;;47.92;23.45;;;;;;;-2.43;100.00;100010.56;4970789;28;20097;-66
2020/12/06 01:34:24;;;;;;;47.47;23.60;;;;;;;-2.45;100.00;100020.34;4968101;28;20031;-67
2020/12/06 01:36:51;;;;;;;42.63;23.13;;;;;;;-2.45;100.00;100021.19;4970313;28;20031;-67
2020/12/06 01:39:18;;;;;;;57.10;25.58;;;;;;;-2.36;100.00;100028.44;4970992;28;20034;-66
2020/12/06 01:41:44;;;;;;;41.92;22.98;;;;;;;-2.33;100.00;100029.16;4963787;28;20103;-67
2020/12/06 01:44:09;;;;;;;51.20;23.58;;;;;;;-2.29;100.00;100044.63;4970514;28;20062;-67
2020/12/06 01:46:37;;;;;;;53.85;25.20;;;;;;;-2.25;100.00;100050.53;4970384;28;20491;-66
2020/12/06 01:49:04;;;;;;;57.80;27.40;;;;;;;-2.24;100.00;100053.03;4972281;28;20129;-66
2020/12/06 01:51:30;;;;;;;50.78;26.52;;;;;;;-2.25;100.00;100056.63;4971470;28;20037;-66
2020/12/06 01:53:56;;;;;;;48.40;24.38;;;;;;;-2.28;100.00;100067.31;4971536;28;20110;-67
2020/12/06 01:56:21;;;;;;;47.80;24.55;;;;;;;-2.35;100.00;100072.16;4971319;28;20050;-66
2020/12/06 01:58:47;;;;;;;45.75;23.42;;;;;;;-2.40;100.00;100079.50;4971291;28;20110;-66
2020/12/06 02:01:13;;;;;;;51.08;26.08;;;;;;;-2.44;100.00;100078.03;4970861;28;20035;-66
2020/12/06 02:03:39;;;;;;;54.42;26.60;;;;;;;-2.41;100.00;100082.22;4971120;28;20033;-66
2020/12/06 02:06:06;;;;;;;53.65;26.50;;;;;;;-2.40;100.00;100076.03;4970726;28;20039;-66
2020/12/06 02:08:31;;;;;;;47.58;25.05;;;;;;;-2.38;100.00;100080.22;4970497;28;20133;-66
2020/12/06 02:10:57;;;;;;;60.17;28.17;;;;;;;-2.36;100.00;100070.47;4970536;28;20110;-68
2020/12/06 02:13:23;;;;;;;55.38;26.27;;;;;;;-2.32;100.00;100067.63;4968644;28;20526;-66
2020/12/06 02:15:49;;;;;;;55.92;27.25;;;;;;;-2.30;100.00;100077.09;4970131;28;20030;-67
2020/12/06 02:18:16;;;;;;;59.42;28.48;;;;;;;-2.25;100.00;100058.41;4970188;28;20042;-66
2020/12/06 02:20:42;;;;;;;47.70;24.70;;;;;;;-2.20;100.00;100064.19;4970159;28;20065;-66
2020/12/06 02:23:08;;;;;;;47.22;24.40;;;;;;;-2.21;100.00;100055.47;4970497;28;20038;-66
2020/12/06 02:25:35;;;;;;;51.17;23.73;;;;;;;-2.26;100.00;100051.44;4970419;28;20031;-66
2020/12/06 02:28:02;;;;;;;50.15;22.58;;;;;;;-2.29;100.00;100046.41;4968874;28;20038;-66
2020/12/06 02:30:28;;;;;;;51.58;24.20;;;;;;;-2.33;100.00;100043.16;4970196;28;20030;-67
2020/12/06 02:32:53;;;;;;;46.90;24.50;;;;;;;-2.38;100.00;100029.47;4967124;28;20061;-66
2020/12/06 02:35:19;;;;;;;41.13;20.85;;;;;;;-2.41;100.00;100035.81;4970257;28;20503;-66
2020/12/06 02:37:45;;;;;;;41.70;21.25;;;;;;;-2.44;100.00;100032.53;4969491;28;20035;-66
2020/12/06 02:40:11;;;;;;;39.63;19.58;;;;;;;-2.48;100.00;100020.53;4970187;28;20042;-66
2020/12/06 02:42:37;;;;;;;39.67;20.15;;;;;;;-2.53;100.00;100027.88;4968703;28;20035;-66
2020/12/06 02:45:03;;;;;;;36.88;18.77;;;;;;;-2.59;100.00;100025.69;4970220;28;20037;-66
2020/12/06 02:47:31;;;;;;;41.78;19.23;;;;;;;-2.65;100.00;100025.16;4969048;28;20089;-66
2020/12/06 02:49:57;;;;;;;42.72;21.08;;;;;;;-2.70;100.00;100024.59;4970288;28;20035;-66
2020/12/06 02:52:23;;;;;;;48.85;21.25;;;;;;;-2.65;100.00;100021.69;4968963;28;20510;-66
2020/12/06 02:54:49;;;;;;;42.05;20.58;;;;;;;-2.57;100.00;100022.00;4970283;28;20035;-66
2020/12/06 02:57:16;;;;;;;44.60;20.17;;;;;;;-2.54;100.00;100023.59;4968451;28;20456;-66
2020/12/06 02:59:42;;;;;;;43.85;20.88;;;;;;;-2.55;100.00;100030.63;4970180;28;20110;-66
2020/12/06 03:02:08;;;;;;;46.65;22.67;;;;;;;-2.57;100.00;100026.41;4969198;28;20037;-66
2020/12/06 03:04:38;;;;;;;39.10;22.00;;;;;;;-2.59;100.00;100028.31;4969780;28;20034;-66
2020/12/06 03:07:04;;;;;;;48.30;22.15;;;;;;;-2.59;100.00;100031.78;4956213;28;20034;-66
2020/12/06 03:09:30;;;;;;;44.55;21.42;;;;;;;-2.57;100.00;100036.91;4969699;28;20185;-66
2020/12/06 03:11:56;;;;;;;49.85;23.02;;;;;;;-2.55;100.00;100037.66;4968914;28;20129;-66
2020/12/06 03:14:22;;;;;;;43.25;21.05;;;;;;;-2.55;100.00;100037.66;4969850;28;20049;-66
2020/12/06 03:16:47;;;;;;;44.25;20.67;;;;;;;-2.53;100.00;100038.38;4968550;28;20037;-66
2020/12/06 03:19:13;;;;;;;39.90;20.08;;;;;;;-2.47;100.00;100036.19;4969670;28;20446;-66
2020/12/06 03:21:39;;;;;;;44.13;21.33;;;;;;;-2.46;100.00;100029.16;4969055;28;20073;-66
2020/12/06 03:24:04;;;;;;;42.45;19.95;;;;;;;-2.51;100.00;100029.47;4969454;28;20334;-66
2020/12/06 03:26:30;;;;;;;36.92;19.33;;;;;;;-2.48;100.00;100034.50;4968616;28;20411;-66
2020/12/06 03:28:55;;;;;;;37.58;18.65;;;;;;;-2.45;100.00;100030.84;4969902;28;20030;-66
2020/12/06 03:31:21;;;;;;;42.88;20.27;;;;;;;-2.43;100.00;100032.41;4968529;28;20483;-66
2020/12/06 03:33:46;;;;;;;39.85;19.85;;;;;;;-2.45;100.00;100028.22;4966175;28;20433;-66
2020/12/06 03:36:12;;;;;;;42.05;19.63;;;;;;;-2.45;100.00;100017.72;4969552;28;20043;-67
2020/12/06 03:38:38;;;;;;;45.80;19.85;;;;;;;-2.48;100.00;100017.91;4968245;28;20447;-67
2020/12/06 03:41:03;;;;;;;40.63;20.60;;;;;;;-2.49;100.00;100014.44;4973074;28;20038;-67
2020/12/06 03:43:29;;;;;;;40.22;18.27;;;;;;;-2.50;100.00;100012.78;4971624;28;20519;-66
2020/12/06 03:45:54;;;;;;;40.70;19.75;;;;;;;-2.44;100.00;100012.34;4971212;28;20254;-66
2020/12/06 03:48:20;;;;;;;38.00;18.15;;;;;;;-2.51;100.00;100008.47;4971916;28;20031;-66
2020/12/06 03:50:46;;;;;;;37.67;18.38;;;;;;;-2.46;100.00;100016.00;4973460;28;20457;-66
2020/12/06 03:53:11;;;;;;;46.47;20.83;;;;;;;-2.40;100.00;100019.09;4972100;28;20514;-67
2020/12/06 03:55:37;;;;;;;41.85;19.10;;;;;;;-2.38;100.00;100006.69;4973155;28;20034;-66
2020/12/06 03:58:02;;;;;;;39.92;18.75;;;;;;;-2.35;100.00;100008.28;4972356;28;20031;-66
2020/12/06 04:00:28;;;;;;;40.47;20.30;;;;;;;-2.36;100.00;100010.06;4987771;28;20054;-66
2020/12/06 04:02:54;;;;;;;39.22;18.40;;;;;;;-2.32;100.00;100015.91;4972653;28;20031;-66
2020/12/06 04:05:20;;;;;;;38.58;18.45;;;;;;;-2.24;100.00;100023.28;4973207;28;20033;-66
2020/12/06 04:07:48;;;;;;;37.45;19.15;;;;;;;-2.23;100.00;100020.56;4971626;28;20038;-66
2020/12/06 04:10:13;;;;;;;36.08;18.77;;;;;;;-2.18;100.00;100018.44;4972320;28;20741;-66
2020/12/06 04:12:39;;;;;;;36.95;18.83;;;;;;;-2.14;100.00;100019.09;4971792;28;20117;-66
2020/12/06 04:15:05;;;;;;;44.67;19.40;;;;;;;-2.15;100.00;100028.75;4972345;28;20522;-66
2020/12/06 04:17:31;;;;;;;39.35;19.23;;;;;;;-2.13;100.00;100020.75;4971679;28;20053;-66
2020/12/06 04:19:57;;;;;;;42.00;18.13;;;;;;;-2.09;100.00;100015.19;4972612;28;20035;-66
2020/12/06 04:22:22;;;;;;;41.67;19.20;;;;;;;-2.03;100.00;100018.34;4971946;28;20035;-66
2020/12/06 04:24:48;;;;;;;40.47;20.33;;;;;;;-2.00;100.00;100015.50;4972037;28;20045;-66
2020/12/06 04:27:14;;;;;;;46.20;20.38;;;;;;;-2.01;100.00;100024.31;4972112;28;20065;-66
2020/12/06 04:29:39;;;;;;;43.42;19.80;;;;;;;-2.01;100.00;100017.28;4972124;28;20117;-66
2020/12/06 04:32:05;;;;;;;36.72;18.25;;;;;;;-1.99;100.00;100025.06;4971789;28;20059;-67
2020/12/06 04:34:31;;;;;;;49.22;21.48;;;;;;;-1.97;100.00;100041.56;4971774;28;20098;-66
2020/12/06 04:36:56;;;;;;;43.33;20.65;;;;;;;-1.95;100.00;100037.91;4971254;28;20029;-66
2020/12/06 04:39:22;;;;;;;47.00;23.25;;;;;;;-1.93;100.00;100038.63;4971358;28;20126;-66
2020/12/06 04:41:48;;;;;;;47.50;20.70;;;;;;;-1.90;100.00;100043.69;4971833;28;20472;-66
2020/12/06 04:44:14;;;;;;;49.67;21.95;;;;;;;-1.94;100.00;100034.31;4971192;28;20033;-66
2020/12/06 04:46:40;;;;;;;47.03;22.13;;;;;;;-1.94;100.00;100041.38;4972125;28;20376;-67
2020/12/06 04:49:28;;;;;;;46.97;20.67;;;;;;;-1.95;100.00;100040.53;4971533;28;20058;-66
2020/12/06 04:51:55;;;;;;;40.58;19.08;;;;;;;-1.97;100.00;100046.81;4970595;28;20447;-66
2020/12/06 04:54:31;;;;;;;36.13;18.10;;;;;;;-1.98;100.00;100051.25;4971667;28;20121;-66
2020/12/06 04:57:02;;;;;;;39.95;18.40;;;;;;;-2.03;100.00;100050.72;4971230;28;20031;-66
2020/12/06 04:59:28;;;;;;;47.63;19.52;;;;;;;-2.04;100.00;100059.56;4971528;28;20034;-66
2020/12/06 05:01:57;;;;;;;40.50;18.50;;;;;;;-2.01;100.00;100064.59;4971324;28;20023;-66
2020/12/06 05:04:25;;;;;;;40.08;19.50;;;;;;;-2.02;100.00;100064.72;4971164;28;20031;-66
2020/12/06 05:06:53;;;;;;;41.47;18.63;;;;;;;-1.98;100.00;100072.28;4971102;28;20027;-66
2020/12/06 05:09:21;;;;;;;41.85;21.13;;;;;;;-2.00;100.00;100068.09;4971247;28;20027;-66
2020/12/06 05:11:47;;;;;;;37.95;17.95;;;;;;;-2.03;100.00;100068.28;4971082;28;20039;-66
2020/12/06 05:14:12;;;;;;;36.55;17.48;;;;;;;-2.17;100.00;100070.06;4971118;28;20081;-65
2020/12/06 05:16:40;;;;;;;39.25;18.42;;;;;;;-2.19;100.00;100069.34;4969877;28;20053;-66
2020/12/06 05:19:08;;;;;;;44.70;19.15;;;;;;;-2.18;100.00;100065.75;4986230;28;20053;-67
2020/12/06 05:21:36;;;;;;;34.95;17.63;;;;;;;-2.18;100.00;100065.75;4971471;28;20522;-66
2020/12/06 05:24:02;;;;;;;40.30;18.40;;;;;;;-2.18;100.00;100063.13;4970860;28;20038;-66
2020/12/06 05:26:29;;;;;;;37.80;17.88;;;;;;;-2.19;100.00;100065.88;4971144;28;20181;-66
2020/12/06 05:28:55;;;;;;;39.13;18.17;;;;;;;-2.21;100.00;100063.34;4986428;28;20041;-66
2020/12/06 05:31:22;;;;;;;29.92;15.23;;;;;;;-2.32;100.00;100065.00;4971425;28;20031;-65
2020/12/06 05:33:48;;;;;;;39.35;18.63;;;;;;;-2.33;100.00;100058.06;4971721;28;20031;-65
2020/12/06 05:36:15;;;;;;;39.97;18.08;;;;;;;-2.31;100.00;100058.78;4971879;28;20034;-66
2020/12/06 05:38:40;;;;;;;41.83;18.45;;;;;;;-2.28;100.00;100051.56;4971560;28;20053;-66
2020/12/06 05:41:07;;;;;;;37.42;17.98;;;;;;;-2.24;100.00;100046.94;4971124;28;20500;-66
2020/12/06 05:43:33;;;;;;;42.65;17.50;;;;;;;-2.25;100.00;100047.91;4971659;28;20042;-66
2020/12/06 05:46:11;;;;;;;37.63;18.25;;;;;;;-2.28;100.00;100042.84;4970804;28;20057;-66
2020/12/06 05:48:38;;;;;;;35.78;17.00;;;;;;;-2.31;100.00;100045.66;4970981;28;20045;-66
2020/12/06 05:51:04;;;;;;;43.55;19.73;;;;;;;-2.32;100.00;100041.34;4971097;28;20035;-66
2020/12/06 05:53:31;;;;;;;42.40;19.27;;;;;;;-2.31;100.00;100043.03;4970813;28;20464;-66
2020/12/06 05:56:05;;;;;;;40.42;17.52;;;;;;;-2.28;100.00;100041.03;4985899;28;20027;-66
2020/12/06 05:58:32;;;;;;;42.80;17.75;;;;;;;-2.23;100.00;100046.81;4970575;28;20038;-66
2020/12/06 06:01:01;;;;;;;40.05;18.42;;;;;;;-2.19;100.00;100040.44;4970844;28;20089;-67
2020/12/06 06:03:29;;;;;;;38.63;18.10;;;;;;;-2.18;100.00;100054.41;4969772;28;20081;-65
2020/12/06 06:05:56;;;;;;;45.75;19.38;;;;;;;-2.17;100.00;100056.06;4970679;28;20113;-66
2020/12/06 06:08:26;;;;;;;44.28;20.50;;;;;;;-2.15;100.00;100054.22;4970615;28;20401;-67
2020/12/06 06:11:15;;;;;;;45.38;19.45;;;;;;;-2.11;100.00;100053.03;4969929;28;20034;-66
2020/12/06 06:13:47;;;;;;;39.40;17.60;;;;;;;-2.11;100.00;100040.75;4959114;28;20090;-66
2020/12/06 06:16:14;;;;;;;54.33;21.52;;;;;;;-2.11;100.00;100050.41;4970157;28;20031;-66
2020/12/06 06:18:43;;;;;;;42.45;19.67;;;;;;;-2.11;100.00;100043.38;4970878;28;20086;-66
2020/12/06 06:21:09;;;;;;;36.88;18.08;;;;;;;-2.12;100.00;100051.34;4969889;28;20126;-67
2020/12/06 06:23:35;;;;;;;44.67;20.88;;;;;;;-2.14;100.00;100048.84;4970381;28;20478;-67
2020/12/06 06:26:00;;;;;;;45.42;20.35;;;;;;;-2.09;100.00;100045.91;4970614;28;20034;-66
2020/12/06 06:28:26;;;;;;;47.13;22.17;;;;;;;-2.03;100.00;100053.34;4970203;28;20045;-66
2020/12/06 06:30:54;;;;;;;54.05;21.70;;;;;;;-1.93;100.00;100043.03;4969745;28;20098;-66
2020/12/06 06:33:21;;;;;;;59.28;24.67;;;;;;;-1.88;100.00;100046.19;4967087;28;20497;-67
2020/12/06 06:35:47;;;;;;;58.92;25.10;;;;;;;-1.77;100.00;100042.81;4984554;28;20039;-67
2020/12/06 06:38:12;;;;;;;52.25;23.77;;;;;;;-1.72;100.00;100045.97;4970134;28;20035;-66
2020/12/06 06:40:39;;;;;;;53.65;22.92;;;;;;;-1.71;100.00;100039.75;4969942;28;20522;-67
2020/12/06 06:43:05;;;;;;;56.28;23.73;;;;;;;-1.67;100.00;100042.06;4970450;28;20034;-66
2020/12/06 06:45:43;;;;;;;56.85;24.67;;;;;;;-1.61;100.00;100046.03;4970308;28;20042;-66
2020/12/06 06:48:14;;;;;;;49.53;21.38;;;;;;;-1.60;100.00;100043.34;4970137;28;20038;-67
2020/12/06 06:50:40;;;;;;;47.42;21.95;;;;;;;-1.59;100.00;100050.25;4970036;28;20162;-66
2020/12/06 06:53:05;;;;;;;44.40;21.67;;;;;;;-1.57;100.00;100047.50;4969854;28;20489;-66
2020/12/06 06:55:50;;;;;;;51.05;20.70;;;;;;;-1.58;100.00;100051.94;4984937;28;20161;-66
2020/12/06 06:58:18;;;;;;;50.50;20.52;;;;;;;-1.58;100.00;100051.94;4969509;28;20050;-66
2020/12/06 07:00:44;;;;;;;47.05;19.70;;;;;;;-1.54;100.00;100065.72;4970184;28;20495;-67
2020/12/06 07:03:11;;;;;;;46.25;21.20;;;;;;;-1.57;100.00;100072.03;4969691;28;20034;-66
2020/12/06 07:05:37;;;;;;;46.15;21.25;;;;;;;-1.58;100.00;100070.34;4970352;28;20309;-66
2020/12/06 07:08:09;;;;;;;45.38;21.13;;;;;;;-1.54;100.00;100078.88;4950019;28;20066;-67
2020/12/06 07:10:38;;;;;;;53.35;23.65;;;;;;;-1.49;100.00;100076.75;4960167;28;20444;-66
2020/12/06 07:13:06;;;;;;;57.33;22.73;;;;;;;-1.36;100.00;100069.66;4967785;28;20046;-67
2020/12/06 07:15:32;;;;;;;56.72;23.27;;;;;;;-1.31;100.00;100078.09;4966977;28;20085;-67
2020/12/06 07:17:59;;;;;;;51.63;23.52;;;;;;;-1.32;100.00;100072.94;4966843;28;20038;-66
2020/12/06 07:20:26;;;;;;;48.70;22.23;;;;;;;-1.32;100.00;100075.56;4967643;28;20088;-66
2020/12/06 07:22:53;;;;;;;55.97;25.45;;;;;;;-1.41;100.00;100071.78;4967612;28;20395;-67
2020/12/06 07:25:20;;;;;;;55.00;23.75;;;;;;;-1.36;100.00;100076.72;4968422;28;20120;-66
2020/12/06 07:27:46;;;;;;;52.35;22.63;;;;;;;-1.36;100.00;100072.28;4967208;28;20392;-67
2020/12/06 07:30:16;;;;;;;48.88;22.80;;;;;;;-1.40;100.00;100076.13;4966752;28;20478;-67
2020/12/06 07:32:42;;;;;;;73.93;29.00;;;;;;;-1.42;100.00;100075.38;4963580;28;20037;-67
2020/12/06 07:35:10;;;;;;;66.75;26.63;;;;;;;-1.38;100.00;100074.22;4967787;28;20031;-67
2020/12/06 07:37:36;;;;;;;54.33;24.55;;;;;;;-1.34;100.00;100069.56;4965877;28;20039;-67
2020/12/06 07:40:09;;;;;;;61.25;25.58;;;;;;;-1.31;100.00;100072.84;4966917;28;20041;-67
2020/12/06 07:42:36;;;;;;;59.38;24.02;;;;;;;-1.25;100.00;100070.72;4966166;28;20027;-67
2020/12/06 07:45:04;;;;;;;50.85;23.52;;;;;;;-1.21;100.00;100074.78;4967822;28;20039;-67
2020/12/06 07:47:30;;;;;;;49.53;22.60;;;;;;;-1.20;100.00;100064.16;4966658;28;20439;-67
2020/12/06 07:49:57;;;;;;;53.50;24.02;;;;;;;-1.21;100.00;100054.56;4967375;28;20093;-66
2020/12/06 07:52:26;;;;;;;57.67;22.50;;;;;;;-1.18;100.00;100050.88;4967056;28;20511;-67
2020/12/06 07:54:55;;;;;;;50.28;23.42;;;;;;;-1.18;100.00;100056.16;4967401;28;20082;-66
2020/12/06 07:57:35;;;;;;;48.53;23.38;;;;;;;-1.20;100.00;100076.50;4953651;28;20046;-67
2020/12/06 08:00:04;;;;;;;56.50;23.35;;;;;;;-1.21;100.00;100080.06;4966187;28;20043;-66
2020/12/06 08:02:32;;;;;;;60.67;25.40;;;;;;;-1.16;100.00;100080.56;4967135;28;20101;-67
2020/12/06 08:04:59;;;;;;;59.50;24.42;;;;;;;-1.14;100.00;100092.69;4967299;28;20031;-67
2020/12/06 08:07:30;;;;;;;49.40;21.50;;;;;;;-1.20;100.00;100094.91;4966301;28;20446;-67
2020/12/06 08:09:59;;;;;;;48.95;22.33;;;;;;;-1.17;100.00;100092.88;4966673;28;20149;-67
2020/12/06 08:12:29;;;;;;;49.83;22.92;;;;;;;-1.14;100.00;100097.09;4967186;28;20138;-67
2020/12/06 08:14:59;;;;;;;51.42;23.60;;;;;;;-1.07;100.00;100098.34;4967198;28;20123;-67
2020/12/06 08:17:25;;;;;;;59.08;24.95;;;;;;;-1.02;100.00;100093.56;4967364;28;20121;-67
2020/12/06 08:19:51;;;;;;;48.20;22.70;;;;;;;-0.95;100.00;100092.19;4966095;28;20534;-67
2020/12/06 08:22:16;;;;;;;51.83;22.83;;;;;;;-0.91;100.00;100093.63;4965824;28;20062;-67
2020/12/06 08:24:42;;;;;;;57.45;24.40;;;;;;;-0.88;100.00;100082.06;4966653;28;20558;-67
2020/12/06 08:27:18;;;;;;;54.20;23.38;;;;;;;-0.84;100.00;100084.34;4967700;28;20035;-67
2020/12/06 08:29:46;;;;;;;62.72;24.42;;;;;;;-0.79;100.00;100076.13;4971721;28;20041;-67
2020/12/06 08:32:11;;;;;;;49.65;22.02;;;;;;;-0.73;100.00;100078.28;4970096;28;20060;-67
2020/12/06 08:34:37;;;;;;;52.20;23.38;;;;;;;-0.68;100.00;100075.31;4970431;28;20551;-67
2020/12/06 08:37:13;;;;;;;47.92;22.98;;;;;;;-0.61;100.00;100076.53;4969721;28;20268;-67
2020/12/06 08:39:39;;;;;;;47.58;20.50;;;;;;;-0.60;100.00;100065.06;4969394;28;20062;-67
2020/12/06 08:42:13;;;;;;;55.33;25.13;;;;;;;-0.52;100.00;100058.25;4970195;28;20054;-67
2020/12/06 08:44:54;;;;;;;54.22;26.02;;;;;;;-0.47;100.00;100057.91;4969894;28;20109;-67
2020/12/06 08:47:20;;;;;;;69.40;30.42;;;;;;;-0.53;100.00;100059.22;4969728;28;20093;-67
2020/12/06 08:49:45;;;;;;;73.70;33.28;;;;;;;-0.54;100.00;100061.97;4969525;28;20034;-67
2020/12/06 08:52:21;;;;;;;73.07;30.05;;;;;;;-0.50;100.00;100063.44;4970846;28;20514;-67
2020/12/06 08:54:48;;;;;;;65.57;28.67;;;;;;;-0.47;100.00;100057.06;4984940;28;20488;-67
2020/12/06 08:57:14;;;;;;;80.85;27.23;;;;;;;-0.43;100.00;100053.25;4957566;28;20443;-67
2020/12/06 08:59:41;;;;;;;55.20;26.25;;;;;;;-0.34;100.00;100047.31;4983625;28;20057;-67
2020/12/06 09:02:08;;;;;;;63.17;27.05;;;;;;;-0.29;100.00;100046.00;4968553;28;20038;-67
2020/12/06 09:04:35;;;;;;;53.75;25.73;;;;;;;-0.20;100.00;100049.72;4969392;28;20030;-67
2020/12/06 09:07:03;;;;;;;58.92;24.80;;;;;;;-0.14;100.00;100044.00;4969557;28;20031;-67
2020/12/06 09:09:29;;;;;;;52.38;25.65;;;;;;;-0.08;100.00;100053.22;4968883;28;20045;-67
2020/12/06 09:11:56;;;;;;;57.92;25.52;;;;;;;-0.02;100.00;100056.22;4969907;28;20376;-67
2020/12/06 09:14:22;;;;;;;54.17;24.65;;;;;;;-0.04;100.00;100052.88;4984290;28;20370;-67
2020/12/06 09:16:48;;;;;;;63.38;26.42;;;;;;;0.01;100.00;100062.22;4967546;28;20049;-68
2020/12/06 09:19:14;;;;;;;62.85;28.08;;;;;;;0.07;100.00;100065.22;4962562;28;20046;-67
2020/12/06 09:21:39;;;;;;;58.33;26.92;;;;;;;0.18;100.00;100065.22;4969224;28;20416;-68
2020/12/06 09:24:05;;;;;;;49.90;24.52;;;;;;;0.27;100.00;100060.22;4966540;28;20081;-67
2020/12/06 09:26:31;;;;;;;53.30;24.58;;;;;;;0.34;100.00;100064.88;4982147;28;20031;-68
2020/12/06 09:28:57;;;;;;;50.38;24.27;;;;;;;0.38;100.00;100057.56;4968101;28;20030;-68
2020/12/06 09:31:23;;;;;;;55.15;24.92;;;;;;;0.44;100.00;100065.00;4969718;28;20031;-68
2020/12/06 09:33:49;;;;;;;47.38;23.30;;;;;;;0.38;100.00;100070.75;4968392;28;20031;-68
2020/12/06 09:36:16;;;;;;;52.22;24.50;;;;;;;0.35;100.00;100068.34;4968501;28;20399;-68
2020/12/06 09:38:41;;;;;;;53.45;25.67;;;;;;;0.39;100.00;100070.63;4967446;28;20121;-68
2020/12/06 09:41:11;;;;;;;61.08;25.17;;;;;;;0.47;100.00;100064.75;4968255;28;20629;-68
2020/12/06 09:43:37;;;;;;;58.85;26.50;;;;;;;0.62;100.00;100062.72;4967805;28;20104;-67
2020/12/06 09:46:02;;;;;;;55.00;25.20;;;;;;;0.56;100.00;100057.94;4968989;28;20031;-68
2020/12/06 09:48:28;;;;;;;54.53;25.65;;;;;;;0.56;100.00;100064.03;4966777;28;20050;-68
2020/12/06 09:50:54;;;;;;;62.53;27.30;;;;;;;0.54;100.00;100067.75;4968524;28;20027;-68
2020/12/06 09:53:19;;;;;;;56.38;25.63;;;;;;;0.59;100.00;100053.22;4969099;28;20400;-68
2020/12/06 09:55:45;;;;;;;57.38;27.25;;;;;;;0.69;100.00;100038.31;4967022;28;20540;-68
2020/12/06 09:58:10;;;;;;;62.67;27.77;;;;;;;0.77;100.00;100035.94;4967952;28;20049;-68
2020/12/06 10:00:36;;;;;;;56.90;26.13;;;;;;;0.88;100.00;100042.97;4968129;28;20027;-68
2020/12/06 10:03:02;;;;;;;57.40;24.83;;;;;;;0.93;100.00;100037.31;4967010;28;20052;-68
2020/12/06 10:05:27;;;;;;;57.05;26.92;;;;;;;0.97;100.00;100046.69;4968088;28;20037;-69
2020/12/06 10:07:53;;;;;;;54.35;25.15;;;;;;;0.95;100.00;100035.38;4965051;28;20130;-68
2020/12/06 10:10:19;;;;;;;51.35;24.13;;;;;;;0.96;100.00;100039.72;4967491;28;20034;-68
2020/12/06 10:12:44;;;;;;;46.65;23.33;;;;;;;0.98;100.00;100043.06;4982760;28;20030;-69
2020/12/06 10:15:10;;;;;;;59.33;26.05;;;;;;;1.00;100.00;100049.06;4968311;28;20247;-68
2020/12/06 10:17:38;;;;;;;58.05;27.13;;;;;;;0.95;100.00;100054.72;4967575;28;20038;-68
2020/12/06 10:20:06;;;;;;;55.80;25.23;;;;;;;1.10;100.00;100051.78;4967542;28;20031;-68
2020/12/06 10:22:31;;;;;;;56.20;25.42;;;;;;;1.10;100.00;100050.00;4967771;28;20054;-68
2020/12/06 10:24:57;;;;;;;57.58;26.45;;;;;;;1.07;100.00;100044.97;4964078;28;20019;-68
2020/12/06 10:27:22;;;;;;;51.05;24.52;;;;;;;1.15;100.00;100055.72;4968191;28;20050;-68
2020/12/06 10:29:48;;;;;;;54.53;26.00;;;;;;;1.17;100.00;100061.75;4967849;28;20483;-68
2020/12/06 10:32:14;;;;;;;57.60;26.10;;;;;;;1.14;100.00;100046.13;4968005;28;20074;-68
2020/12/06 10:34:40;;;;;;;56.13;28.00;;;;;;;1.18;100.00;100036.16;4967753;28;20401;-68
2020/12/06 10:37:05;;;;;;;60.33;27.00;;;;;;;1.24;100.00;100023.28;4982739;28;20081;-68
2020/12/06 10:39:31;;;;;;;58.45;26.40;;;;;;;1.40;100.00;100022.84;4967729;28;20027;-68
2020/12/06 10:41:57;;;;;;;56.83;27.30;;;;;;;1.44;100.00;100031.38;4967339;28;20042;-68
2020/12/06 10:44:24;;;;;;;54.78;24.10;;;;;;;1.48;100.00;100030.16;4968942;28;20041;-68
2020/12/06 10:46:51;;;;;;;58.20;25.27;;;;;;;1.49;100.00;100032.66;4967399;28;20048;-68
2020/12/06 10:49:17;;;;;;;52.60;26.38;;;;;;;1.57;100.00;100034.66;4967563;28;20529;-68
2020/12/06 10:51:43;;;;;;;68.22;30.38;;;;;;;1.67;100.00;100042.66;4965739;28;20038;-68
2020/12/06 10:54:10;;;;;;;55.53;27.55;;;;;;;1.84;100.00;100060.59;4967550;28;20027;-68
2020/12/06 10:56:37;;;;;;;50.10;25.80;;;;;;;1.93;100.00;100061.63;4966965;28;20034;-68
2020/12/06 10:59:04;;;;;;;52.28;25.75;;;;;;;2.02;100.00;100058.22;4965900;28;20027;-68
2020/12/06 11:01:32;;;;;;;52.63;25.13;;;;;;;2.00;100.00;100062.78;4967205;28;20495;-68